Time;durP1;ratioP1;P1;durP2;ratioP2;P2;SDS_P1;SDS_P2;PMS_P1;PMS_P2;Temp;Humidity;BMP_temperature;BMP_pressure;BME280_temperature;BME280_humidity;BME280_pressure;Samples;Min_cycle;Max_cycle;Signal;HPM_P1;HPM_P2
2023/01/15 00:00:17;;;;;;;33.27;18.93;;;3.60;99.90;;;;;;4226109;28;20354;-65
2023/01/15 00:02:18;;;;;;;37.43;19.43;;;3.60;99.90;;;;;;4228976;27;20280;-65
2023/01/15 00:04:19;;;;;;;34.57;18.23;;;3.60;99.90;;;;;;4230882;28;20283;-63
2023/01/15 00:06:22;;;;;;;30.37;16.30;;;3.60;99.90;;;;;;4228537;28;20272;-64
2023/01/15 00:08:23;;;;;;;31.20;16.03;;;3.60;99.90;;;;;;4231274;28;20684;-66
2023/01/15 00:10:24;;;;;;;32.97;17.87;;;3.60;99.90;;;;;;4229647;28;20268;-68
2023/01/15 00:12:25;;;;;;;32.87;18.97;;;3.60;99.90;;;;;;4231234;28;20253;-65
2023/01/15 00:14:27;;;;;;;37.67;19.97;;;3.70;99.90;;;;;;4229835;28;20260;-66
2023/01/15 00:16:29;;;;;;;38.10;19.00;;;3.70;99.90;;;;;;4231633;28;20816;-67
2023/01/15 00:18:30;;;;;;;34.47;18.23;;;3.70;99.90;;;;;;4229771;28;20720;-63
2023/01/15 00:20:31;;;;;;;31.73;17.87;;;3.70;99.90;;;;;;4231179;28;20260;-67
2023/01/15 00:22:32;;;;;;;34.03;17.80;;;3.80;99.90;;;;;;4230003;28;20739;-67
2023/01/15 00:29:13;;;;;;;28.37;14.60;;;3.80;99.90;;;;;;4231366;28;20073;-68
2023/01/15 00:31:15;;;;;;;27.03;13.37;;;3.80;99.90;;;;;;4229632;28;20306;-66
2023/01/15 00:33:16;;;;;;;27.40;14.13;;;3.80;99.90;;;;;;4230735;28;20743;-64
2023/01/15 00:35:20;;;;;;;27.50;14.93;;;3.90;99.90;;;;;;4229894;28;20287;-66
2023/01/15 00:37:21;;;;;;;27.80;15.10;;;3.90;99.90;;;;;;4230291;28;20264;-62
2023/01/15 00:39:23;;;;;;;25.77;14.07;;;3.90;99.90;;;;;;4230137;28;20248;-66
2023/01/15 00:41:25;;;;;;;26.33;14.13;;;3.90;99.90;;;;;;4229879;28;20736;-67
2023/01/15 00:43:26;;;;;;;25.67;13.87;;;3.90;99.90;;;;;;4228949;28;20276;-66
2023/01/15 00:45:27;;;;;;;21.83;12.80;;;4.00;99.90;;;;;;4229198;27;20276;-67
2023/01/15 00:47:28;;;;;;;22.57;12.57;;;4.00;99.90;;;;;;4230999;28;20325;-66
2023/01/15 00:49:29;;;;;;;23.43;13.00;;;4.00;99.90;;;;;;4229133;28;20337;-68
2023/01/15 00:51:31;;;;;;;20.93;11.07;;;4.00;99.90;;;;;;4230281;28;20346;-63
2023/01/15 00:53:33;;;;;;;23.33;12.37;;;4.00;99.90;;;;;;4229544;28;20616;-63
2023/01/15 00:55:35;;;;;;;19.03;10.53;;;4.00;99.90;;;;;;4230436;28;20265;-62
2023/01/15 00:57:36;;;;;;;21.43;12.63;;;4.00;99.90;;;;;;4229416;28;20260;-66
2023/01/15 00:59:37;;;;;;;17.80;10.30;;;4.00;99.90;;;;;;4229900;28;20804;-66
2023/01/15 01:01:38;;;;;;;21.70;11.63;;;4.00;99.90;;;;;;4228685;28;20321;-65
2023/01/15 01:03:39;;;;;;;21.50;11.33;;;4.00;99.90;;;;;;4229881;28;20781;-69
2023/01/15 01:05:41;;;;;;;22.53;12.17;;;4.00;99.90;;;;;;4229222;28;20333;-68
2023/01/15 01:07:42;;;;;;;23.47;13.03;;;4.00;99.90;;;;;;4229259;28;20287;-67
2023/01/15 01:09:43;;;;;;;22.80;12.20;;;4.00;99.90;;;;;;4229730;28;20253;-67
2023/01/15 01:11:44;;;;;;;23.80;13.13;;;4.00;99.90;;;;;;4228417;28;20315;-64
2023/01/15 01:13:46;;;;;;;22.57;12.10;;;4.00;99.90;;;;;;4229805;28;20276;-64
2023/01/15 01:15:47;;;;;;;22.27;12.73;;;4.00;99.90;;;;;;4228937;28;20268;-67
2023/01/15 01:17:48;;;;;;;20.87;11.83;;;4.00;99.90;;;;;;4229716;28;20321;-67
2023/01/15 01:19:49;;;;;;;16.63;10.80;;;4.00;99.90;;;;;;4228896;28;20325;-67
2023/01/15 01:21:51;;;;;;;25.30;14.40;;;4.00;99.90;;;;;;4230239;28;20698;-66
2023/01/15 01:23:53;;;;;;;19.30;11.03;;;4.00;99.90;;;;;;4228557;28;20369;-62
2023/01/15 01:25:56;;;;;;;20.07;11.93;;;4.00;99.90;;;;;;4229624;28;20690;-66
2023/01/15 01:27:57;;;;;;;22.93;12.27;;;4.00;99.90;;;;;;4228702;28;20267;-68
2023/01/15 01:29:59;;;;;;;19.00;10.77;;;4.00;99.90;;;;;;4229426;28;20268;-68
2023/01/15 01:32:00;;;;;;;18.63;11.03;;;4.00;99.90;;;;;;4228607;28;20878;-68
2023/01/15 01:34:01;;;;;;;16.77;9.87;;;3.90;99.90;;;;;;4229367;28;20328;-64
2023/01/15 01:36:03;;;;;;;19.97;11.73;;;4.00;99.90;;;;;;4228209;28;20283;-69
2023/01/15 01:38:04;;;;;;;19.57;11.40;;;4.00;99.90;;;;;;4229533;28;20256;-67
2023/01/15 01:40:05;;;;;;;20.03;11.07;;;4.00;99.90;;;;;;4227880;28;20256;-68
2023/01/15 01:42:15;;;;;;;18.23;10.83;;;4.00;99.90;;;;;;4229162;28;20325;-68
2023/01/15 01:44:31;;;;;;;16.53;9.33;;;4.00;99.90;;;;;;4228592;28;20357;-65
2023/01/15 01:46:34;;;;;;;17.47;9.80;;;3.90;99.90;;;;;;4229249;28;20275;-68
2023/01/15 01:48:36;;;;;;;19.30;10.97;;;4.00;99.90;;;;;;4228950;28;20306;-67
2023/01/15 01:50:39;;;;;;;19.60;11.13;;;4.00;99.90;;;;;;4226879;28;20260;-64
2023/01/15 01:52:50;;;;;;;19.27;10.90;;;4.00;99.90;;;;;;4229021;28;20276;-66
2023/01/15 01:54:52;;;;;;;18.37;10.63;;;4.00;99.90;;;;;;4228273;28;20292;-68
2023/01/15 01:56:53;;;;;;;22.97;11.13;;;4.00;99.90;;;;;;4229076;28;20662;-68
2023/01/15 01:58:55;;;;;;;20.33;11.37;;;4.00;99.90;;;;;;4227934;28;20322;-68
2023/01/15 02:00:56;;;;;;;18.23;10.27;;;3.90;99.90;;;;;;4228847;28;20309;-65
2023/01/15 02:02:59;;;;;;;21.07;11.87;;;4.00;99.90;;;;;;4227971;28;20259;-64
2023/01/15 02:05:02;;;;;;;18.77;11.53;;;4.00;99.90;;;;;;4228777;28;20678;-68
2023/01/15 02:07:04;;;;;;;19.87;11.70;;;4.00;99.90;;;;;;4228051;28;20275;-69
2023/01/15 02:09:05;;;;;;;17.77;10.67;;;4.00;99.90;;;;;;4229033;28;20268;-67
2023/01/15 02:11:11;;;;;;;21.07;12.10;;;4.00;99.90;;;;;;4227657;28;20349;-68
2023/01/15 02:13:34;;;;;;;22.70;11.23;;;4.00;99.90;;;;;;4228915;28;20317;-68
2023/01/15 02:15:40;;;;;;;22.77;12.10;;;4.00;99.90;;;;;;4227739;28;20321;-68
2023/01/15 02:18:06;;;;;;;21.30;11.80;;;3.90;99.90;;;;;;4228729;28;20264;-66
2023/01/15 02:20:36;;;;;;;22.60;11.83;;;3.90;99.90;;;;;;4227720;28;20325;-67
2023/01/15 02:22:56;;;;;;;22.73;11.53;;;3.80;99.90;;;;;;4228860;28;20279;-65
2023/01/15 02:25:12;;;;;;;22.27;12.33;;;3.80;99.90;;;;;;4227623;28;20357;-68
2023/01/15 02:27:17;;;;;;;22.37;12.40;;;3.80;99.90;;;;;;4227873;28;20693;-67
2023/01/15 02:29:33;;;;;;;24.10;12.83;;;3.80;99.90;;;;;;4227216;28;20305;-64
2023/01/15 02:31:41;;;;;;;24.07;13.07;;;3.80;99.90;;;;;;4215367;28;20313;-67
2023/01/15 02:33:55;;;;;;;25.43;12.63;;;3.70;99.90;;;;;;4227668;28;20284;-67
2023/01/15 02:36:01;;;;;;;22.17;12.50;;;3.80;99.90;;;;;;4228011;28;20333;-68
2023/01/15 02:38:08;;;;;;;27.10;14.00;;;3.70;99.90;;;;;;4227460;28;20264;-68
2023/01/15 02:40:12;;;;;;;23.10;12.60;;;3.70;99.90;;;;;;4228349;28;20275;-67
2023/01/15 02:42:15;;;;;;;23.17;12.70;;;3.70;99.90;;;;;;4227120;28;20275;-68
2023/01/15 02:44:19;;;;;;;23.83;13.00;;;3.70;99.90;;;;;;4228309;28;20635;-68
2023/01/15 02:46:25;;;;;;;23.50;13.07;;;3.70;99.90;;;;;;4227228;28;20609;-68
2023/01/15 02:48:29;;;;;;;26.40;12.73;;;3.70;99.90;;;;;;4228395;28;20693;-65
2023/01/15 02:50:37;;;;;;;23.67;12.83;;;3.70;99.90;;;;;;4227338;28;20280;-68
2023/01/15 02:52:49;;;;;;;22.03;12.63;;;3.70;99.90;;;;;;4228522;28;20280;-68
2023/01/15 02:55:06;;;;;;;19.37;11.03;;;3.70;99.90;;;;;;4227133;28;20337;-68
2023/01/15 02:57:10;;;;;;;24.33;13.00;;;3.70;99.90;;;;;;4228401;28;20332;-67
2023/01/15 02:59:20;;;;;;;25.27;13.07;;;3.70;99.90;;;;;;4226737;28;20287;-69
2023/01/15 03:01:28;;;;;;;24.05;12.38;;;3.70;99.90;;;;;;4228259;28;20409;-65
2023/01/15 03:03:32;;;;;;;23.60;12.60;;;3.70;99.90;;;;;;4227325;28;20476;-69
2023/01/15 03:05:47;;;;;;;24.67;12.60;;;3.70;99.90;;;;;;4227888;28;20341;-67
2023/01/15 03:07:50;;;;;;;23.70;13.30;;;3.70;99.90;;;;;;4227016;28;20276;-68
2023/01/15 03:09:56;;;;;;;24.37;12.50;;;3.70;99.90;;;;;;4228076;28;20357;-67
2023/01/15 03:12:21;;;;;;;22.10;13.10;;;3.70;99.90;;;;;;4227100;28;20747;-68
2023/01/15 03:14:41;;;;;;;27.10;12.70;;;3.70;99.90;;;;;;4227416;28;20276;-68
2023/01/15 03:16:54;;;;;;;24.58;13.05;;;3.70;99.90;;;;;;4227368;28;20288;-67
2023/01/15 03:19:19;;;;;;;22.37;12.80;;;3.70;99.90;;;;;;4227818;28;20839;-66
2023/01/15 03:21:47;;;;;;;27.53;13.10;;;3.70;99.90;;;;;;4226611;27;20645;-68
2023/01/15 03:23:52;;;;;;;26.27;13.20;;;3.70;99.90;;;;;;4226848;28;20360;-68
2023/01/15 03:25:53;;;;;;;22.20;12.93;;;3.70;99.90;;;;;;4227135;28;20662;-68
2023/01/15 03:28:00;;;;;;;24.20;12.10;;;3.60;99.90;;;;;;4227726;28;20256;-67
2023/01/15 03:30:15;;;;;;;22.30;12.50;;;3.60;99.90;;;;;;4226831;28;20635;-66
2023/01/15 03:32:17;;;;;;;25.00;12.57;;;3.60;99.90;;;;;;4227448;28;20299;-68
2023/01/15 03:34:18;;;;;;;24.10;13.07;;;3.60;99.90;;;;;;4226934;28;20313;-67
2023/01/15 03:36:20;;;;;;;25.40;12.13;;;3.60;99.90;;;;;;4230667;28;20268;-64
2023/01/15 03:38:27;;;;;;;24.87;13.40;;;3.60;99.90;;;;;;4230296;28;20321;-65
2023/01/15 03:40:29;;;;;;;23.60;12.67;;;3.50;99.90;;;;;;4230820;28;20681;-67
2023/01/15 03:42:41;;;;;;;22.20;12.53;;;3.50;99.90;;;;;;4229724;28;20288;-65
2023/01/15 03:45:06;;;;;;;27.80;14.10;;;3.50;99.90;;;;;;4230682;28;20300;-67
2023/01/15 03:47:39;;;;;;;25.17;12.97;;;3.50;99.90;;;;;;4226030;28;20376;-66
2023/01/15 03:50:17;;;;;;;23.00;12.87;;;3.50;99.90;;;;;;4231031;28;20341;-66
2023/01/15 03:52:42;;;;;;;25.17;13.37;;;3.50;99.90;;;;;;4231268;28;20348;-67
2023/01/15 03:55:22;;;;;;;26.17;14.50;;;3.50;99.90;;;;;;4202122;28;20277;-66
2023/01/15 03:57:33;;;;;;;28.45;14.70;;;3.50;99.90;;;;;;4223972;28;20341;-69
2023/01/15 03:59:39;;;;;;;23.30;13.43;;;3.50;99.90;;;;;;4229632;28;20073;-68
2023/01/15 04:01:43;;;;;;;23.37;13.60;;;3.50;99.90;;;;;;4230896;28;20271;-65
2023/01/15 04:03:44;;;;;;;24.10;12.93;;;3.50;99.90;;;;;;4229514;28;20276;-66
2023/01/15 04:05:47;;;;;;;27.17;14.27;;;3.50;99.90;;;;;;4230784;28;20296;-67
2023/01/15 04:07:50;;;;;;;26.40;14.37;;;3.50;99.90;;;;;;4229778;28;20328;-67
2023/01/15 04:09:51;;;;;;;28.73;15.30;;;3.50;99.90;;;;;;4228919;28;20345;-68
2023/01/15 04:11:52;;;;;;;26.77;14.30;;;3.50;99.90;;;;;;4229753;28;20352;-65
2023/01/15 04:13:53;;;;;;;32.73;15.27;;;3.50;99.90;;;;;;4230530;28;20280;-63
2023/01/15 04:15:56;;;;;;;26.03;14.83;;;3.50;99.90;;;;;;4229745;28;20678;-65
2023/01/15 04:17:57;;;;;;;26.77;15.33;;;3.50;99.90;;;;;;4230153;28;20276;-63
2023/01/15 04:19:58;;;;;;;27.53;14.20;;;3.50;99.90;;;;;;4230061;28;20998;-68
2023/01/15 04:22:00;;;;;;;26.90;15.20;;;3.50;99.90;;;;;;4230166;28;20268;-68
2023/01/15 04:24:01;;;;;;;30.33;14.57;;;3.40;99.90;;;;;;4230509;28;20371;-68
2023/01/15 04:26:02;;;;;;;29.07;16.63;;;3.40;99.90;;;;;;4229326;28;20759;-68
2023/01/15 04:28:03;;;;;;;51.47;23.00;;;3.40;99.90;;;;;;4230313;28;20349;-66
2023/01/15 04:30:05;;;;;;;42.63;19.17;;;3.40;99.90;;;;;;4228796;28;20680;-67
2023/01/15 04:32:07;;;;;;;33.97;17.87;;;3.40;99.90;;;;;;4230142;28;20784;-68
2023/01/15 04:34:08;;;;;;;33.47;16.20;;;3.30;99.90;;;;;;4214182;28;20276;-68
2023/01/15 04:36:09;;;;;;;32.13;16.73;;;3.30;99.90;;;;;;4230080;28;20267;-66
2023/01/15 04:38:10;;;;;;;29.00;16.27;;;3.40;99.90;;;;;;4229090;28;20337;-65
2023/01/15 04:44:05;;;;;;;30.80;17.00;;;3.40;99.90;;;;;;4230408;28;20280;-63
2023/01/15 04:44:53;;;;;;;35.40;17.40;;;3.40;99.90;;;;;;4230599;28;20549;-63
2023/01/15 04:46:56;;;;;;;32.70;17.47;;;3.40;99.90;;;;;;4214670;28;20276;-67
2023/01/15 04:48:57;;;;;;;33.37;18.27;;;3.40;99.90;;;;;;4213761;28;20273;-67
2023/01/15 04:51:03;;;;;;;33.53;17.03;;;3.50;99.90;;;;;;4212340;28;20280;-68
2023/01/15 04:53:04;;;;;;;30.97;16.70;;;3.40;99.90;;;;;;4211924;28;20369;-66
2023/01/15 04:55:07;;;;;;;33.70;17.07;;;3.40;99.90;;;;;;4223186;28;20260;-65
2023/01/15 04:57:10;;;;;;;29.90;17.07;;;3.40;99.90;;;;;;4229446;28;20280;-68
2023/01/15 04:59:12;;;;;;;30.40;16.27;;;3.50;99.90;;;;;;4229479;28;20304;-67
2023/01/15 05:01:15;;;;;;;35.87;17.30;;;3.40;99.90;;;;;;4229805;28;20276;-68
2023/01/15 05:03:16;;;;;;;33.77;17.27;;;3.40;99.90;;;;;;4229303;28;20263;-66
2023/01/15 05:05:17;;;;;;;38.27;18.80;;;3.40;99.90;;;;;;4229149;28;20765;-67
2023/01/15 05:07:19;;;;;;;35.30;19.13;;;3.30;99.90;;;;;;4228794;28;20345;-67
2023/01/15 05:09:20;;;;;;;37.33;18.70;;;3.30;99.90;;;;;;4228609;28;20256;-67
2023/01/15 05:11:21;;;;;;;41.57;18.73;;;3.30;99.90;;;;;;4229013;28;20271;-64
2023/01/15 05:13:22;;;;;;;33.90;17.20;;;3.30;99.90;;;;;;4227425;28;20252;-67
2023/01/15 05:15:23;;;;;;;35.00;18.00;;;3.30;99.90;;;;;;4229508;28;20252;-65
2023/01/15 05:17:24;;;;;;;31.73;17.70;;;3.30;99.90;;;;;;4228776;28;20313;-65
2023/01/15 05:19:25;;;;;;;33.23;16.43;;;3.30;99.90;;;;;;4229840;28;20341;-67
2023/01/15 05:21:32;;;;;;;31.77;17.30;;;3.30;99.90;;;;;;4228503;28;20264;-65
2023/01/15 05:23:33;;;;;;;34.07;18.43;;;3.30;99.90;;;;;;4229855;28;20729;-68
2023/01/15 05:25:37;;;;;;;37.17;18.67;;;3.30;99.90;;;;;;4228650;28;20296;-67
2023/01/15 05:27:38;;;;;;;33.80;16.97;;;3.30;99.90;;;;;;4229655;28;20677;-64
2023/01/15 05:29:39;;;;;;;36.17;17.83;;;3.30;99.90;;;;;;4228293;28;20264;-67
2023/01/15 05:31:43;;;;;;;37.47;18.57;;;3.30;99.90;;;;;;4229424;28;20256;-68
2023/01/15 05:33:47;;;;;;;34.93;18.03;;;3.30;99.90;;;;;;4226896;28;20321;-69
2023/01/15 05:35:48;;;;;;;37.47;18.37;;;3.30;99.90;;;;;;4228511;28;20345;-68
2023/01/15 05:37:49;;;;;;;32.73;16.70;;;3.30;99.90;;;;;;4228956;28;20256;-67
2023/01/15 05:39:50;;;;;;;33.73;17.10;;;3.20;99.90;;;;;;4228788;28;20272;-68
2023/01/15 05:41:52;;;;;;;31.60;18.07;;;3.20;99.90;;;;;;4229130;28;20276;-68
2023/01/15 05:43:55;;;;;;;34.67;17.90;;;3.20;99.90;;;;;;4227353;28;20284;-65
2023/01/15 05:46:01;;;;;;;34.60;17.27;;;3.10;99.90;;;;;;4229203;28;20345;-67
2023/01/15 05:48:02;;;;;;;34.70;18.30;;;3.10;99.90;;;;;;4228913;28;20321;-63
2023/01/15 05:50:03;;;;;;;35.07;17.77;;;3.00;99.90;;;;;;4229062;28;20260;-65
2023/01/15 05:52:05;;;;;;;33.03;17.70;;;3.00;99.90;;;;;;4228165;28;20988;-67
2023/01/15 05:54:09;;;;;;;35.37;18.00;;;2.90;99.90;;;;;;4229054;28;20309;-66
2023/01/15 05:56:10;;;;;;;33.07;16.30;;;2.90;99.90;;;;;;4228194;28;20313;-64
2023/01/15 05:58:12;;;;;;;32.03;18.10;;;2.80;99.90;;;;;;4228612;28;20264;-65
2023/01/15 06:00:13;;;;;;;32.40;16.67;;;2.80;99.90;;;;;;4227328;28;20770;-66
2023/01/15 06:02:15;;;;;;;31.83;17.17;;;2.70;99.90;;;;;;4228832;28;20333;-65
2023/01/15 06:04:20;;;;;;;31.03;17.13;;;2.70;99.90;;;;;;4228096;28;20264;-65
2023/01/15 06:06:21;;;;;;;33.00;18.37;;;2.70;99.90;;;;;;4228353;28;20300;-65
2023/01/15 06:08:23;;;;;;;37.47;17.63;;;2.70;99.90;;;;;;4228210;28;20271;-63
2023/01/15 06:10:24;;;;;;;32.43;17.80;;;2.70;99.90;;;;;;4228300;28;20340;-64
2023/01/15 06:12:25;;;;;;;34.73;19.00;;;2.70;99.90;;;;;;4228362;28;20260;-63
2023/01/15 06:14:26;;;;;;;34.37;17.60;;;2.70;99.90;;;;;;4228126;28;20792;-63
2023/01/15 06:16:27;;;;;;;36.37;18.37;;;2.70;99.90;;;;;;4227293;28;21199;-63
2023/01/15 06:18:28;;;;;;;33.07;18.80;;;2.70;99.90;;;;;;4227964;28;20275;-66
2023/01/15 06:20:29;;;;;;;37.07;19.13;;;2.70;99.90;;;;;;4229009;28;20340;-63
2023/01/15 06:22:30;;;;;;;38.13;19.40;;;2.70;99.90;;;;;;4227741;28;20326;-64
2023/01/15 06:24:32;;;;;;;44.23;21.93;;;2.70;99.90;;;;;;4228698;28;20309;-64
2023/01/15 06:26:33;;;;;;;66.93;28.03;;;2.70;99.90;;;;;;4227497;28;20276;-63
2023/01/15 06:28:34;;;;;;;52.37;25.57;;;2.70;99.90;;;;;;4228856;28;20264;-66
2023/01/15 06:30:37;;;;;;;64.10;29.60;;;2.70;99.90;;;;;;4227242;28;20268;-63
2023/01/15 06:32:38;;;;;;;64.47;28.20;;;2.70;99.90;;;;;;4227116;28;20751;-62
2023/01/15 06:34:42;;;;;;;54.87;25.00;;;2.70;99.90;;;;;;4227131;28;20288;-63
2023/01/15 06:36:44;;;;;;;45.37;22.23;;;2.70;99.90;;;;;;4228793;28;20268;-63
2023/01/15 06:38:45;;;;;;;45.90;22.90;;;2.70;99.90;;;;;;4227263;28;20260;-62
2023/01/15 06:40:46;;;;;;;47.47;23.23;;;2.70;99.90;;;;;;4228041;28;20313;-68
2023/01/15 06:47:29;;;;;;;47.80;22.97;;;2.80;99.90;;;;;;4227869;28;20093;-62
2023/01/15 06:49:31;;;;;;;47.53;24.60;;;2.80;99.90;;;;;;4228228;28;20350;-63
2023/01/15 06:51:32;;;;;;;43.90;22.03;;;2.80;99.90;;;;;;4226072;28;20364;-62
2023/01/15 06:53:33;;;;;;;48.37;23.17;;;2.80;99.90;;;;;;4227658;28;20268;-63
2023/01/15 06:55:35;;;;;;;50.50;24.40;;;2.90;99.90;;;;;;4227556;28;20313;-63
2023/01/15 06:57:38;;;;;;;45.50;23.23;;;2.90;99.90;;;;;;4227096;28;20276;-63
2023/01/15 06:59:39;;;;;;;41.77;21.33;;;2.90;99.90;;;;;;4227588;28;20649;-62
2023/01/15 07:01:41;;;;;;;45.27;23.53;;;2.90;99.90;;;;;;4226658;28;20346;-63
2023/01/15 07:03:42;;;;;;;43.50;22.20;;;2.90;99.90;;;;;;4227431;28;20333;-62
2023/01/15 07:05:43;;;;;;;42.17;22.57;;;3.00;99.90;;;;;;4226531;28;20334;-63
2023/01/15 07:07:44;;;;;;;45.90;22.87;;;3.00;99.90;;;;;;4227740;28;20252;-62
2023/01/15 07:09:45;;;;;;;43.60;22.03;;;3.00;99.90;;;;;;4225306;28;20280;-62
2023/01/15 07:11:49;;;;;;;42.30;21.53;;;3.00;99.90;;;;;;4227993;28;20333;-65
2023/01/15 07:14:04;;;;;;;48.10;24.27;;;3.10;99.90;;;;;;4226515;28;20273;-61
2023/01/15 07:16:25;;;;;;;41.37;20.80;;;3.10;99.90;;;;;;4226873;28;20280;-63
2023/01/15 07:18:28;;;;;;;46.43;22.97;;;3.10;99.90;;;;;;4226128;28;20267;-63
2023/01/15 07:20:29;;;;;;;45.93;22.63;;;3.20;99.90;;;;;;4227755;28;20372;-62
2023/01/15 07:22:31;;;;;;;40.57;21.77;;;3.20;99.90;;;;;;4226095;28;20326;-63
2023/01/15 07:24:32;;;;;;;40.27;22.83;;;3.20;99.90;;;;;;4227740;28;20264;-62
2023/01/15 07:26:34;;;;;;;45.30;23.73;;;3.30;99.90;;;;;;4225946;28;20344;-62
2023/01/15 07:28:35;;;;;;;43.93;22.97;;;3.30;99.90;;;;;;4227201;28;20275;-62
2023/01/15 07:30:36;;;;;;;45.33;24.03;;;3.20;99.90;;;;;;4226323;28;20708;-63
2023/01/15 07:32:37;;;;;;;44.03;21.73;;;3.20;99.90;;;;;;4227238;28;20946;-63
2023/01/15 07:34:38;;;;;;;45.77;23.73;;;3.30;99.90;;;;;;4226335;28;21043;-63
2023/01/15 07:36:39;;;;;;;49.10;23.40;;;3.30;99.90;;;;;;4226880;28;20325;-62
2023/01/15 07:38:40;;;;;;;40.40;22.00;;;3.40;99.90;;;;;;4227232;28;20268;-63
2023/01/15 07:40:42;;;;;;;43.63;23.50;;;3.40;99.90;;;;;;4226910;28;20264;-64
2023/01/15 07:49:44;;;;;;;44.23;21.17;;;3.50;99.90;;;;;;4227035;28;20085;-63
2023/01/15 07:51:45;;;;;;;38.80;21.23;;;3.50;99.90;;;;;;4227435;28;20264;-62
2023/01/15 07:53:46;;;;;;;40.30;21.00;;;3.60;99.90;;;;;;4226331;28;20268;-65
2023/01/15 07:55:47;;;;;;;39.63;21.83;;;3.60;99.90;;;;;;4227517;28;20702;-62
2023/01/15 07:57:49;;;;;;;45.67;22.63;;;3.70;99.90;;;;;;4226403;28;20744;-62
2023/01/15 07:59:50;;;;;;;38.33;20.83;;;3.60;99.90;;;;;;4227013;28;20267;-62
2023/01/15 08:01:51;;;;;;;44.80;20.73;;;3.70;99.90;;;;;;4226582;28;20256;-62
2023/01/15 08:03:52;;;;;;;39.90;22.33;;;3.70;99.90;;;;;;4227617;28;20264;-61
2023/01/15 08:05:53;;;;;;;49.07;23.30;;;3.70;99.90;;;;;;4226423;28;20292;-62
2023/01/15 08:07:54;;;;;;;42.23;22.47;;;3.80;99.90;;;;;;4227707;28;20309;-62
2023/01/15 08:09:56;;;;;;;41.13;22.43;;;3.80;99.90;;;;;;4226513;28;20328;-62
2023/01/15 08:16:38;;;;;;;36.73;20.37;;;3.90;99.90;;;;;;4227783;28;20329;-61
2023/01/15 08:18:39;;;;;;;50.43;30.77;;;3.90;99.90;;;;;;4226398;28;20333;-63
2023/01/15 08:20:40;;;;;;;58.60;36.13;;;3.90;99.90;;;;;;4228442;28;20264;-70
2023/01/15 08:22:43;;;;;;;61.87;39.27;;;3.90;99.90;;;;;;4219559;28;20687;-61
2023/01/15 08:24:44;;;;;;;66.20;39.47;;;3.90;99.90;;;;;;4213182;28;20260;-61
2023/01/15 08:26:45;;;;;;;61.97;36.67;;;3.90;99.90;;;;;;4212269;28;20292;-61
2023/01/15 08:28:46;;;;;;;52.83;31.90;;;4.00;99.90;;;;;;4213338;28;20276;-61
2023/01/15 08:30:47;;;;;;;40.73;22.53;;;4.20;99.90;;;;;;4228958;28;20247;-64
2023/01/15 08:32:48;;;;;;;32.60;18.20;;;4.20;99.90;;;;;;4229103;28;20276;-65
2023/01/15 08:34:50;;;;;;;42.30;24.43;;;4.20;99.90;;;;;;4229797;28;20737;-61
2023/01/15 08:36:58;;;;;;;41.83;24.20;;;4.20;99.90;;;;;;4229234;28;20724;-63
2023/01/15 08:38:59;;;;;;;51.80;29.37;;;4.20;99.90;;;;;;4229800;28;20260;-64
2023/01/15 08:41:02;;;;;;;49.17;26.90;;;4.20;99.90;;;;;;4228729;28;20275;-65
2023/01/15 08:43:03;;;;;;;44.80;24.43;;;4.20;99.90;;;;;;4230130;28;20263;-64
2023/01/15 08:45:05;;;;;;;39.57;23.17;;;4.20;99.90;;;;;;4228795;28;20264;-62
2023/01/15 08:47:06;;;;;;;41.07;22.50;;;4.20;99.90;;;;;;4229685;28;20621;-61
2023/01/15 08:49:09;;;;;;;31.57;17.90;;;4.30;99.90;;;;;;4228885;28;20333;-64
2023/01/15 08:51:11;;;;;;;31.23;16.77;;;4.40;99.90;;;;;;4227716;28;20272;-62
2023/01/15 08:53:12;;;;;;;20.60;11.60;;;4.50;99.90;;;;;;4226363;28;20357;-65
2023/01/15 08:55:13;;;;;;;15.70;9.43;;;4.50;99.90;;;;;;4230087;28;20333;-62
2023/01/15 08:57:14;;;;;;;15.47;9.20;;;4.50;99.90;;;;;;4229034;28;20728;-68
2023/01/15 08:59:17;;;;;;;13.93;9.00;;;4.60;99.90;;;;;;4229860;28;20268;-69
2023/01/15 09:01:18;;;;;;;17.17;9.00;;;4.60;99.90;;;;;;4227668;28;20268;-62
2023/01/15 09:03:20;;;;;;;13.80;8.83;;;4.70;99.90;;;;;;4228339;28;20268;-62
2023/01/15 09:05:21;;;;;;;13.77;8.47;;;4.80;99.90;;;;;;4228671;28;20043;-63
2023/01/15 09:07:22;;;;;;;17.63;9.23;;;4.80;99.90;;;;;;4229300;28;20552;-61
2023/01/15 09:09:23;;;;;;;16.53;10.17;;;4.80;99.90;;;;;;4230124;28;20256;-64
2023/01/15 09:11:24;;;;;;;18.10;10.10;;;4.80;99.90;;;;;;4221968;28;20265;-66
2023/01/15 09:13:26;;;;;;;17.43;10.17;;;4.80;99.90;;;;;;4229155;28;20271;-64
2023/01/15 09:15:29;;;;;;;15.30;9.73;;;4.90;99.90;;;;;;4228048;28;20264;-64
2023/01/15 09:17:31;;;;;;;23.30;10.33;;;4.90;99.90;;;;;;4229471;28;20043;-65
2023/01/15 09:19:32;;;;;;;15.73;8.83;;;4.90;99.90;;;;;;4229216;28;20264;-65
2023/01/15 09:21:34;;;;;;;18.77;10.13;;;4.80;99.90;;;;;;4229645;28;20800;-63
2023/01/15 09:23:35;;;;;;;15.70;10.07;;;4.80;99.90;;;;;;4211661;28;20272;-64
2023/01/15 09:25:36;;;;;;;18.70;10.63;;;4.80;99.90;;;;;;4228580;28;20096;-64
2023/01/15 09:27:37;;;;;;;18.77;10.87;;;4.80;99.90;;;;;;4227587;28;20279;-63
2023/01/15 09:29:38;;;;;;;15.67;9.13;;;4.70;99.90;;;;;;4229066;28;20263;-74
2023/01/15 09:31:39;;;;;;;14.43;9.17;;;4.80;99.90;;;;;;4228702;28;20032;-68
2023/01/15 09:33:40;;;;;;;17.17;9.80;;;4.80;99.90;;;;;;4227558;28;20773;-65
2023/01/15 09:35:42;;;;;;;14.67;8.87;;;4.80;99.90;;;;;;4228975;28;20280;-74
2023/01/15 09:37:48;;;;;;;15.10;9.13;;;4.90;99.90;;;;;;4227260;28;20272;-63
2023/01/15 09:39:50;;;;;;;17.43;9.93;;;5.00;99.90;;;;;;4228750;28;20272;-64
2023/01/15 09:42:14;;;;;;;17.47;10.13;;;5.00;99.90;;;;;;4228049;28;20024;-70
2023/01/15 09:44:35;;;;;;;16.50;9.90;;;4.90;99.90;;;;;;4225894;28;20329;-70
2023/01/15 09:47:03;;;;;;;19.93;11.53;;;4.90;99.90;;;;;;4227491;27;20106;-70
2023/01/15 09:49:32;;;;;;;24.20;13.70;;;4.80;99.90;;;;;;4229206;28;20876;-63
2023/01/15 09:51:54;;;;;;;34.17;16.77;;;4.80;99.90;;;;;;4228873;28;20252;-67
2023/01/15 09:54:04;;;;;;;20.03;11.10;;;4.80;99.90;;;;;;4226865;28;20264;-64
2023/01/15 09:56:15;;;;;;;21.85;11.93;;;4.80;99.90;;;;;;4228928;28;20670;-65
2023/01/15 09:58:19;;;;;;;22.43;10.97;;;4.70;99.90;;;;;;4226064;28;20605;-62
2023/01/15 10:00:23;;;;;;;43.67;18.70;;;4.80;99.90;;;;;;4228449;28;20347;-62
2023/01/15 10:02:46;;;;;;;22.53;12.67;;;4.80;99.90;;;;;;4227650;28;20256;-61
2023/01/15 10:05:01;;;;;;;25.33;13.13;;;4.80;99.90;;;;;;4229007;28;20260;-63
2023/01/15 10:07:12;;;;;;;27.67;13.27;;;4.80;99.90;;;;;;4227820;28;20780;-63
2023/01/15 10:09:20;;;;;;;24.85;14.00;;;4.80;99.90;;;;;;4229023;28;20713;-63
2023/01/15 10:14:17;;;;;;;23.13;12.50;;;4.80;99.90;;;;;;4211846;28;20334;-61
2023/01/15 10:16:27;;;;;;;30.03;14.53;;;4.90;99.90;;;;;;4212699;28;20040;-61
2023/01/15 10:18:28;;;;;;;17.73;10.93;;;4.90;99.90;;;;;;4226972;28;20298;-62
2023/01/15 10:21:10;;;;;;;22.20;12.87;;;4.90;99.90;;;;;;4227511;28;20475;-57
2023/01/15 10:23:34;;;;;;;42.83;18.63;;;5.00;99.90;;;;;;4226958;28;20743;-62
2023/01/15 10:25:48;;;;;;;41.97;19.10;;;5.00;99.90;;;;;;4211012;28;20554;-63
2023/01/15 10:27:51;;;;;;;82.57;30.03;;;5.10;99.90;;;;;;4213658;28;20318;-61
2023/01/15 10:29:59;;;;;;;219.47;69.40;;;5.30;99.90;;;;;;4227786;28;20279;-65
2023/01/15 10:32:20;;;;;;;28.13;14.83;;;5.50;99.90;;;;;;4210760;28;20273;-61
2023/01/15 10:35:02;;;;;;;16.93;10.83;;;5.50;99.90;;;;;;4210738;28;20329;-60
2023/01/15 10:37:32;;;;;;;18.67;11.30;;;5.50;99.90;;;;;;4210398;28;20032;-61
2023/01/15 10:40:08;;;;;;;20.42;11.90;;;5.50;99.90;;;;;;4211318;28;20032;-62
2023/01/15 10:42:12;;;;;;;19.73;11.23;;;5.50;99.90;;;;;;4209828;28;20086;-64
2023/01/15 10:44:26;;;;;;;19.83;11.33;;;5.50;99.90;;;;;;4211345;28;20430;-62
2023/01/15 10:46:36;;;;;;;20.23;12.50;;;5.50;99.90;;;;;;4209934;28;20101;-68
2023/01/15 10:48:47;;;;;;;19.92;11.43;;;5.60;99.90;;;;;;4211685;28;20370;-61
2023/01/15 10:50:49;;;;;;;21.50;13.07;;;5.60;99.90;;;;;;4209663;28;20085;-63
2023/01/15 10:53:30;;;;;;;15.83;10.73;;;5.60;99.90;;;;;;4210761;28;20092;-62
2023/01/15 10:55:42;;;;;;;17.93;11.10;;;5.70;99.90;;;;;;4210344;28;20036;-68
2023/01/15 10:58:15;;;;;;;20.60;12.07;;;5.60;99.90;;;;;;4210752;28;20353;-63
2023/01/15 11:00:17;;;;;;;19.07;12.63;;;5.50;99.90;;;;;;4200839;28;20090;-64
2023/01/15 11:02:41;;;;;;;21.33;12.03;;;5.50;99.90;;;;;;4210487;28;20257;-65
2023/01/15 11:04:42;;;;;;;20.97;12.30;;;5.50;99.90;;;;;;4210665;28;20036;-61
2023/01/15 11:06:43;;;;;;;23.67;13.63;;;5.40;99.90;;;;;;4210226;28;20082;-66
2023/01/15 11:08:54;;;;;;;22.13;12.80;;;5.50;99.90;;;;;;4210516;28;20036;-63
2023/01/15 11:10:59;;;;;;;27.58;15.50;;;5.40;99.90;;;;;;4222293;28;20020;-62